Time;durP1;ratioP1;P1;durP2;ratioP2;P2;SDS_P1;SDS_P2;PMS_P1;PMS_P2;Temp;Humidity;BMP_temperature;BMP_pressure;BME280_temperature;BME280_humidity;BME280_pressure;Samples;Min_cycle;Max_cycle;Signal;HPM_P1;HPM_P2
2021/04/08 00:00:36;;;;;;;15.00;3.60;;;1.40;99.90;;;;;;4911018;29;20235;-75
2021/04/08 00:03:21;;;;;;;16.37;3.30;;;1.30;99.90;;;;;;4905315;29;20291;-75
2021/04/08 00:06:06;;;;;;;9.07;2.43;;;1.30;99.90;;;;;;4914943;29;20291;-76
2021/04/08 00:08:51;;;;;;;13.23;2.80;;;1.30;99.90;;;;;;4908887;29;20251;-76
2021/04/08 00:11:36;;;;;;;17.80;3.17;;;1.30;99.90;;;;;;4901906;29;20203;-76
2021/04/08 00:14:21;;;;;;;12.97;2.73;;;1.30;99.90;;;;;;4915074;29;20216;-76
2021/04/08 00:17:05;;;;;;;11.10;2.90;;;1.30;99.90;;;;;;4915431;29;20255;-75
2021/04/08 00:19:50;;;;;;;13.03;2.70;;;1.30;99.90;;;;;;4906851;29;20227;-77
2021/04/08 00:22:36;;;;;;;16.67;3.57;;;1.30;99.90;;;;;;4908557;29;20243;-74
2021/04/08 00:25:21;;;;;;;13.07;3.73;;;1.30;99.90;;;;;;4915041;29;20280;-77
2021/04/08 00:28:07;;;;;;;12.67;4.47;;;1.20;99.90;;;;;;4909213;29;20291;-73
2021/04/08 00:30:52;;;;;;;17.33;6.00;;;1.20;99.90;;;;;;4910342;29;20220;-77
2021/04/08 00:33:37;;;;;;;18.43;6.77;;;1.20;99.90;;;;;;4909114;29;20210;-75
2021/04/08 00:36:22;;;;;;;18.20;7.80;;;1.20;99.90;;;;;;4903188;29;20934;-76
2021/04/08 00:39:07;;;;;;;22.47;8.93;;;1.20;99.90;;;;;;4914717;29;20227;-76
2021/04/08 00:41:52;;;;;;;21.80;8.97;;;1.20;99.90;;;;;;4907037;29;20315;-76
2021/04/08 00:44:37;;;;;;;20.83;9.17;;;1.20;99.90;;;;;;4913002;29;20207;-76
2021/04/08 00:47:22;;;;;;;23.07;10.37;;;1.10;99.90;;;;;;4914011;29;20258;-76
2021/04/08 00:50:07;;;;;;;22.53;9.97;;;1.10;99.90;;;;;;4903242;29;20231;-72
2021/04/08 00:52:56;;;;;;;27.43;11.90;;;1.10;99.90;;;;;;4912674;29;20207;-75
2021/04/08 00:55:45;;;;;;;23.17;11.13;;;1.10;99.90;;;;;;4913933;29;20219;-77
2021/04/08 00:58:33;;;;;;;20.83;10.30;;;1.10;99.90;;;;;;4907860;29;20223;-75
2021/04/08 01:01:18;;;;;;;23.30;10.43;;;1.10;99.90;;;;;;4904881;29;22311;-77
2021/04/08 01:04:03;;;;;;;26.70;11.60;;;1.10;99.90;;;;;;4911185;29;20335;-75
2021/04/08 01:06:48;;;;;;;23.97;10.70;;;1.20;99.90;;;;;;4909733;29;20215;-76
2021/04/08 01:09:33;;;;;;;34.20;12.23;;;1.20;99.90;;;;;;4905466;29;20298;-77
2021/04/08 01:12:19;;;;;;;26.10;12.27;;;1.20;99.90;;;;;;4913062;29;20259;-76
2021/04/08 01:15:05;;;;;;;27.83;12.83;;;1.30;99.90;;;;;;4913572;29;20584;-76
2021/04/08 01:17:57;;;;;;;31.00;13.33;;;1.30;99.90;;;;;;4905424;29;20703;-76
2021/04/08 01:21:10;;;;;;;25.60;9.97;;;1.30;99.90;;;;;;4907931;29;20330;-76
2021/04/08 01:24:37;;;;;;;31.67;13.00;;;1.40;99.90;;;;;;4905920;29;20207;-75
2021/04/08 01:27:53;;;;;;;26.97;11.37;;;1.50;99.90;;;;;;4914601;29;20287;-76
2021/04/08 01:30:44;;;;;;;30.07;10.97;;;1.50;99.90;;;;;;4909021;29;20227;-76
2021/04/08 01:33:32;;;;;;;26.83;8.87;;;1.60;99.90;;;;;;4910485;29;20232;-77
2021/04/08 01:36:19;;;;;;;23.53;9.27;;;1.60;99.90;;;;;;4914200;29;20720;-76
2021/04/08 01:39:06;;;;;;;20.90;6.50;;;1.60;99.90;;;;;;4913999;29;20239;-76
2021/04/08 01:41:55;;;;;;;16.47;6.67;;;1.70;99.90;;;;;;4913437;29;20291;-74
2021/04/08 01:44:40;;;;;;;19.57;5.67;;;1.70;99.90;;;;;;4901605;29;20240;-76
2021/04/08 01:47:28;;;;;;;19.50;5.40;;;1.80;99.90;;;;;;4913548;29;20219;-76
2021/04/08 01:50:14;;;;;;;19.30;4.80;;;1.90;99.90;;;;;;4914552;29;20235;-77
2021/04/08 01:52:59;;;;;;;12.93;5.13;;;1.90;99.90;;;;;;4913259;29;20215;-76
2021/04/08 01:55:45;;;;;;;18.57;4.83;;;1.90;99.90;;;;;;4895540;29;20260;-76
2021/04/08 01:58:30;;;;;;;12.43;3.60;;;2.00;99.90;;;;;;4902985;29;20219;-76
2021/04/08 02:01:17;;;;;;;15.97;4.40;;;2.00;99.90;;;;;;4913116;29;20235;-76
2021/04/08 02:04:04;;;;;;;11.40;3.67;;;2.00;99.90;;;;;;4908496;29;20659;-75
2021/04/08 02:06:50;;;;;;;12.33;3.63;;;2.10;99.90;;;;;;4909509;29;20212;-76
2021/04/08 02:09:37;;;;;;;11.07;3.57;;;2.10;99.90;;;;;;4913382;29;20287;-75
2021/04/08 02:12:24;;;;;;;8.47;2.80;;;2.10;99.90;;;;;;4914090;29;20267;-74
2021/04/08 02:15:11;;;;;;;7.57;3.20;;;2.20;99.90;;;;;;4904146;29;20211;-77
2021/04/08 02:17:57;;;;;;;12.30;2.83;;;2.20;99.90;;;;;;4929663;29;20232;-72
2021/04/08 02:20:48;;;;;;;13.80;2.80;;;2.20;99.90;;;;;;4928226;29;20297;-71
2021/04/08 02:23:37;;;;;;;10.30;2.83;;;2.20;99.90;;;;;;4937785;29;20188;-72
2021/04/08 02:26:23;;;;;;;11.47;3.40;;;2.20;99.90;;;;;;4932257;29;20230;-77
2021/04/08 02:29:09;;;;;;;8.23;2.57;;;2.20;99.90;;;;;;4906444;29;20238;-77
2021/04/08 02:31:55;;;;;;;12.00;2.50;;;2.20;99.90;;;;;;4910131;29;20233;-77
2021/04/08 02:34:40;;;;;;;10.80;2.70;;;2.20;99.90;;;;;;4917040;29;20211;-75
2021/04/08 02:37:26;;;;;;;11.10;2.63;;;2.20;99.90;;;;;;4918890;29;20556;-77
2021/04/08 02:40:14;;;;;;;9.13;2.13;;;2.20;99.90;;;;;;4919841;29;20234;-77
2021/04/08 02:42:59;;;;;;;7.43;2.50;;;2.20;99.90;;;;;;4910021;29;20253;-77
2021/04/08 02:45:43;;;;;;;8.20;2.53;;;2.10;99.90;;;;;;4917452;29;20214;-77
2021/04/08 02:48:31;;;;;;;14.77;3.13;;;2.20;99.90;;;;;;4912575;29;20696;-77
2021/04/08 02:51:29;;;;;;;11.57;2.30;;;2.20;99.90;;;;;;4902942;29;20216;-77
2021/04/08 02:54:22;;;;;;;10.67;2.43;;;2.20;99.90;;;;;;4905701;29;20207;-77
2021/04/08 02:57:15;;;;;;;9.17;2.40;;;2.20;99.90;;;;;;4903643;29;20257;-76
2021/04/08 03:00:05;;;;;;;9.67;2.57;;;2.20;99.90;;;;;;4918580;29;20659;-76
2021/04/08 03:02:53;;;;;;;17.23;3.63;;;2.30;99.90;;;;;;4917357;29;20287;-77
2021/04/08 03:05:41;;;;;;;12.97;3.03;;;2.30;99.90;;;;;;4919967;29;20211;-76
2021/04/08 03:08:27;;;;;;;16.97;3.27;;;2.30;99.90;;;;;;4915895;29;20279;-76
2021/04/08 03:11:14;;;;;;;13.60;3.20;;;2.30;99.90;;;;;;4916422;29;20252;-77
2021/04/08 03:14:04;;;;;;;12.43;3.97;;;2.30;99.90;;;;;;4917943;29;20231;-75
2021/04/08 03:16:50;;;;;;;14.43;3.30;;;2.40;99.90;;;;;;4917570;29;20296;-77
2021/04/08 03:19:37;;;;;;;9.57;3.00;;;2.40;99.90;;;;;;4913842;29;20235;-76
2021/04/08 03:22:23;;;;;;;7.67;2.70;;;2.40;99.90;;;;;;4909955;29;20215;-77
2021/04/08 03:25:10;;;;;;;11.67;3.70;;;2.40;99.90;;;;;;4914658;29;20211;-76
2021/04/08 03:27:57;;;;;;;10.80;2.77;;;2.40;99.90;;;;;;4916640;29;20598;-77
2021/04/08 03:30:43;;;;;;;9.13;3.17;;;2.40;99.90;;;;;;4905714;29;20220;-77
2021/04/08 03:33:30;;;;;;;12.83;3.00;;;2.50;99.90;;;;;;4914472;29;20235;-75
2021/04/08 03:36:16;;;;;;;10.10;3.27;;;2.40;99.90;;;;;;4909041;29;20298;-77
2021/04/08 03:39:02;;;;;;;9.77;2.77;;;2.40;99.90;;;;;;4916644;29;20763;-77
2021/04/08 03:41:47;;;;;;;9.23;3.07;;;2.40;99.90;;;;;;4905361;29;20290;-76
2021/04/08 03:44:33;;;;;;;6.73;2.10;;;2.40;99.90;;;;;;4915299;29;20211;-77
2021/04/08 03:47:21;;;;;;;6.80;2.70;;;2.40;99.90;;;;;;4904077;29;20700;-72
2021/04/08 03:50:07;;;;;;;6.47;3.03;;;2.30;99.90;;;;;;4918431;29;20234;-77
2021/04/08 03:52:52;;;;;;;11.23;2.87;;;2.30;99.90;;;;;;4917678;29;20247;-76
2021/04/08 03:55:38;;;;;;;12.20;3.07;;;2.30;99.90;;;;;;4913331;29;20315;-77
2021/04/08 03:58:25;;;;;;;10.10;2.60;;;2.30;99.90;;;;;;4917744;29;20211;-76
2021/04/08 04:01:11;;;;;;;8.57;2.73;;;2.30;99.90;;;;;;4917137;29;20259;-77
2021/04/08 04:03:59;;;;;;;11.33;3.13;;;2.30;99.90;;;;;;4917644;29;20238;-77
2021/04/08 04:06:50;;;;;;;9.67;3.27;;;2.30;99.90;;;;;;4907508;29;20212;-76
2021/04/08 04:09:36;;;;;;;10.73;2.90;;;2.30;99.90;;;;;;4916695;29;20234;-76
2021/04/08 04:12:21;;;;;;;9.70;3.23;;;2.40;99.90;;;;;;4916585;29;20305;-74
2021/04/08 04:15:08;;;;;;;8.87;2.80;;;2.40;99.90;;;;;;4916886;29;20670;-75
2021/04/08 04:17:54;;;;;;;10.87;2.87;;;2.40;99.90;;;;;;4915754;29;20223;-77
2021/04/08 04:20:38;;;;;;;10.07;3.20;;;2.40;99.90;;;;;;4915946;29;20255;-77
2021/04/08 04:23:23;;;;;;;8.73;4.33;;;2.50;99.90;;;;;;4913713;29;20210;-73
2021/04/08 04:26:08;;;;;;;12.00;3.60;;;2.50;99.90;;;;;;4916512;29;20214;-77
2021/04/08 04:28:53;;;;;;;9.27;3.30;;;2.50;99.90;;;;;;4915915;29;20340;-76
2021/04/08 04:31:39;;;;;;;8.00;3.37;;;2.50;99.90;;;;;;4906916;29;20279;-72
2021/04/08 04:34:24;;;;;;;5.87;3.67;;;2.50;99.90;;;;;;4902295;29;20575;-76
2021/04/08 04:37:10;;;;;;;12.40;4.40;;;2.60;99.90;;;;;;4914905;29;20796;-76
2021/04/08 04:39:55;;;;;;;12.67;4.80;;;2.60;99.90;;;;;;4903338;29;20796;-76
2021/04/08 04:42:41;;;;;;;11.13;4.50;;;2.60;99.90;;;;;;4898287;29;20216;-75
2021/04/08 04:45:25;;;;;;;12.93;5.37;;;2.60;99.90;;;;;;4894789;29;20207;-76
2021/04/08 04:48:10;;;;;;;16.57;4.93;;;2.70;99.90;;;;;;4913073;29;20215;-74
2021/04/08 04:50:56;;;;;;;13.70;5.70;;;2.70;99.90;;;;;;4912915;29;20764;-75
2021/04/08 04:53:41;;;;;;;14.53;6.00;;;2.70;99.90;;;;;;4903660;29;20592;-75
2021/04/08 04:56:25;;;;;;;21.83;6.83;;;2.70;99.90;;;;;;4898160;29;20284;-76
2021/04/08 04:59:11;;;;;;;15.93;6.93;;;2.70;99.90;;;;;;4911456;29;20310;-77
2021/04/08 05:01:55;;;;;;;21.50;7.60;;;2.70;99.90;;;;;;4908231;29;20227;-77
2021/04/08 05:04:40;;;;;;;15.77;7.23;;;2.80;99.90;;;;;;4914449;29;20219;-75
2021/04/08 05:07:25;;;;;;;16.20;7.10;;;2.80;99.90;;;;;;4907301;29;20219;-76
2021/04/08 05:10:11;;;;;;;16.80;6.97;;;2.80;99.90;;;;;;4907238;29;20707;-77
2021/04/08 05:12:56;;;;;;;13.63;7.07;;;2.80;99.90;;;;;;4913813;29;20306;-80
2021/04/08 05:15:41;;;;;;;11.67;6.03;;;2.90;99.90;;;;;;4916278;29;20756;-76
2021/04/08 05:18:25;;;;;;;15.40;6.93;;;2.90;99.90;;;;;;4915807;29;20214;-78
2021/04/08 05:21:10;;;;;;;13.87;6.20;;;2.90;99.90;;;;;;4917777;29;20320;-78
2021/04/08 05:23:56;;;;;;;13.57;5.90;;;2.90;99.90;;;;;;4919095;29;20211;-77
2021/04/08 05:26:41;;;;;;;12.33;6.07;;;2.90;99.90;;;;;;4917235;29;20297;-77
2021/04/08 05:29:26;;;;;;;12.50;5.87;;;3.00;99.90;;;;;;4918524;29;20235;-77
2021/04/08 05:32:11;;;;;;;14.97;6.70;;;2.90;99.90;;;;;;4915726;29;20564;-77
2021/04/08 05:34:56;;;;;;;15.27;4.77;;;3.00;99.90;;;;;;4926832;29;20218;-78
2021/04/08 05:37:42;;;;;;;13.97;6.33;;;3.00;99.90;;;;;;4912887;29;20211;-75
2021/04/08 05:40:27;;;;;;;20.17;5.97;;;3.00;99.90;;;;;;4910205;29;20310;-78
2021/04/08 05:43:12;;;;;;;13.07;6.30;;;3.00;99.90;;;;;;4915981;29;20234;-78
2021/04/08 05:45:57;;;;;;;11.47;4.63;;;3.10;99.90;;;;;;4920870;29;20268;-75
2021/04/08 05:48:42;;;;;;;14.27;5.37;;;3.00;99.90;;;;;;4916001;29;20224;-78
2021/04/08 05:51:27;;;;;;;13.77;6.63;;;3.10;99.90;;;;;;4917143;29;20210;-77
2021/04/08 05:54:11;;;;;;;15.27;5.37;;;3.00;99.90;;;;;;4917360;29;20260;-75
2021/04/08 05:56:57;;;;;;;8.80;3.70;;;3.10;99.90;;;;;;4922830;29;20211;-78
2021/04/08 05:59:42;;;;;;;14.10;5.70;;;3.00;99.90;;;;;;4919579;29;20227;-78
2021/04/08 06:02:29;;;;;;;10.63;5.20;;;3.00;99.90;;;;;;4919899;29;20215;-77
2021/04/08 06:05:15;;;;;;;12.83;5.80;;;3.00;99.90;;;;;;4939550;29;20251;-76
2021/04/08 06:07:59;;;;;;;16.63;6.00;;;2.90;99.90;;;;;;4908420;28;20204;-77
2021/04/08 06:10:44;;;;;;;16.27;5.80;;;2.90;99.90;;;;;;4917547;29;20595;-79
2021/04/08 06:13:30;;;;;;;15.47;6.50;;;3.00;99.90;;;;;;4924462;29;20300;-78
2021/04/08 06:16:16;;;;;;;14.37;5.83;;;3.00;99.90;;;;;;4920140;29;20250;-78
2021/04/08 06:19:01;;;;;;;11.03;5.53;;;3.00;99.90;;;;;;4919651;29;20235;-78
2021/04/08 06:21:46;;;;;;;9.90;5.47;;;3.10;99.90;;;;;;4920559;29;20350;-78
2021/04/08 06:24:30;;;;;;;13.07;5.37;;;3.20;99.90;;;;;;4919113;29;20216;-77
2021/04/08 06:27:15;;;;;;;10.73;4.63;;;3.20;99.90;;;;;;4916045;29;20271;-78
2021/04/08 06:30:01;;;;;;;14.63;5.70;;;3.20;99.90;;;;;;4921407;29;20851;-79
2021/04/08 06:32:46;;;;;;;12.00;4.90;;;3.20;99.90;;;;;;4923361;29;20259;-77
2021/04/08 06:35:31;;;;;;;11.87;5.00;;;3.20;99.90;;;;;;4915806;29;20264;-78
2021/04/08 06:38:16;;;;;;;11.80;5.00;;;3.20;99.90;;;;;;4915650;29;20211;-77
2021/04/08 06:41:01;;;;;;;13.13;5.70;;;3.20;99.90;;;;;;4923196;29;20216;-78
2021/04/08 06:43:47;;;;;;;10.80;4.93;;;3.20;99.90;;;;;;4912367;29;20203;-76
2021/04/08 06:46:35;;;;;;;11.53;5.27;;;3.20;99.90;;;;;;4919442;29;20295;-78
2021/04/08 06:49:28;;;;;;;9.50;4.60;;;3.30;99.90;;;;;;4915477;29;20231;-76
2021/04/08 06:52:16;;;;;;;10.33;4.47;;;3.30;99.90;;;;;;4920432;29;20705;-76
2021/04/08 06:55:03;;;;;;;12.10;4.83;;;3.30;99.90;;;;;;4913246;29;20242;-77
2021/04/08 06:57:49;;;;;;;9.13;4.80;;;3.30;99.90;;;;;;4917450;29;20684;-77
2021/04/08 07:00:35;;;;;;;11.93;5.57;;;3.30;99.90;;;;;;4919468;29;20264;-74
2021/04/08 07:03:21;;;;;;;13.23;4.27;;;3.40;99.90;;;;;;4918762;29;20222;-77
2021/04/08 07:06:06;;;;;;;8.73;4.40;;;3.40;99.90;;;;;;4914153;29;20215;-78
2021/04/08 07:08:51;;;;;;;12.50;4.50;;;3.40;99.90;;;;;;4915352;29;20247;-77
2021/04/08 07:11:36;;;;;;;12.57;4.40;;;3.40;99.90;;;;;;4913335;29;20203;-77
2021/04/08 07:14:21;;;;;;;8.67;3.60;;;3.40;99.90;;;;;;4917035;29;20288;-77
2021/04/08 07:17:09;;;;;;;8.37;3.70;;;3.40;99.90;;;;;;4920792;29;20231;-79
2021/04/08 07:19:56;;;;;;;10.53;3.53;;;3.50;99.90;;;;;;4906581;29;20797;-77
2021/04/08 07:22:41;;;;;;;7.20;3.13;;;3.50;99.90;;;;;;4918147;29;20219;-76
2021/04/08 07:25:26;;;;;;;5.80;3.30;;;3.60;99.90;;;;;;4920511;29;20219;-79
2021/04/08 07:28:34;;;;;;;11.70;3.67;;;3.60;99.90;;;;;;4923914;29;20223;-79
2021/04/08 07:31:25;;;;;;;8.03;3.33;;;3.70;99.90;;;;;;4904535;29;20280;-74
2021/04/08 07:34:10;;;;;;;8.13;3.60;;;3.70;99.90;;;;;;4913132;29;20214;-76
2021/04/08 07:36:56;;;;;;;8.37;3.90;;;3.80;99.90;;;;;;4907950;29;20264;-77
2021/04/08 07:39:43;;;;;;;10.33;3.67;;;3.80;99.90;;;;;;4911606;29;20283;-78
2021/04/08 07:42:30;;;;;;;7.10;3.23;;;3.80;99.90;;;;;;4913551;29;20219;-77
2021/04/08 07:45:24;;;;;;;9.40;3.70;;;4.00;99.90;;;;;;4922298;29;20240;-73
2021/04/08 07:48:10;;;;;;;10.70;3.97;;;4.00;99.90;;;;;;4921076;29;20295;-78
2021/04/08 07:50:57;;;;;;;9.50;3.63;;;4.00;99.90;;;;;;4922432;29;20793;-77
2021/04/08 07:53:43;;;;;;;11.63;4.37;;;4.10;99.90;;;;;;4920959;29;20224;-79
2021/04/08 07:56:31;;;;;;;7.30;3.67;;;4.20;99.90;;;;;;4916562;29;20579;-77
2021/04/08 07:59:27;;;;;;;9.50;3.70;;;4.40;99.90;;;;;;4920413;29;20304;-74
2021/04/08 08:02:12;;;;;;;7.83;4.13;;;4.30;99.90;;;;;;4919526;29;20231;-79
2021/04/08 08:05:16;;;;;;;8.70;4.03;;;4.40;99.90;;;;;;4915967;29;20215;-78
2021/04/08 08:08:14;;;;;;;6.90;4.17;;;4.50;99.90;;;;;;4916986;29;20216;-77
2021/04/08 08:11:01;;;;;;;8.30;3.70;;;4.60;99.90;;;;;;4920942;29;20248;-75
2021/04/08 08:13:49;;;;;;;8.20;4.13;;;4.60;99.90;;;;;;4917626;29;20208;-78
2021/04/08 08:16:34;;;;;;;5.27;3.43;;;4.70;99.90;;;;;;4920772;29;20760;-78
2021/04/08 08:19:19;;;;;;;6.07;3.00;;;4.80;99.90;;;;;;4919968;29;20635;-77
2021/04/08 08:22:05;;;;;;;10.13;3.73;;;4.90;99.90;;;;;;4918498;29;20589;-79
2021/04/08 08:24:54;;;;;;;11.73;4.23;;;5.00;99.90;;;;;;4920146;29;20227;-79
2021/04/08 08:27:41;;;;;;;5.93;2.27;;;5.10;99.90;;;;;;4920228;29;20208;-78
2021/04/08 08:30:33;;;;;;;9.80;3.70;;;5.20;99.90;;;;;;4930096;29;20245;-75
2021/04/08 08:33:20;;;;;;;8.97;3.30;;;5.30;99.90;;;;;;4931193;29;20212;-77
2021/04/08 08:36:05;;;;;;;9.80;3.07;;;5.40;99.90;;;;;;4928399;29;20292;-77
2021/04/08 08:38:52;;;;;;;8.83;3.17;;;5.50;99.90;;;;;;4928862;29;20283;-73
2021/04/08 08:41:38;;;;;;;9.83;3.37;;;5.60;99.90;;;;;;4916973;29;20231;-78
2021/04/08 08:44:25;;;;;;;7.90;2.90;;;5.80;99.90;;;;;;4922006;29;20233;-77
2021/04/08 08:47:15;;;;;;;6.13;3.23;;;5.90;99.90;;;;;;4918755;29;20685;-77
2021/04/08 08:50:03;;;;;;;7.37;3.63;;;6.00;99.90;;;;;;4918111;29;20227;-77
2021/04/08 08:52:51;;;;;;;7.77;3.23;;;6.30;99.90;;;;;;4916608;29;20626;-78
2021/04/08 08:55:37;;;;;;;5.00;3.20;;;6.50;99.90;;;;;;4916454;29;20316;-77
2021/04/08 08:58:22;;;;;;;5.37;2.97;;;6.60;99.90;;;;;;4918314;29;20228;-79
2021/04/08 09:01:07;;;;;;;7.03;2.90;;;6.80;99.90;;;;;;4911932;29;20308;-76
2021/04/08 09:03:53;;;;;;;5.73;3.23;;;6.90;99.90;;;;;;4917195;29;20220;-77
2021/04/08 09:06:42;;;;;;;5.47;3.47;;;7.00;99.90;;;;;;4914384;29;20262;-77
2021/04/08 09:09:29;;;;;;;6.57;3.40;;;7.10;99.90;;;;;;4911004;29;20274;-74
2021/04/08 09:12:17;;;;;;;9.43;3.10;;;7.30;99.90;;;;;;4913450;29;20625;-76
2021/04/08 09:15:05;;;;;;;4.70;3.20;;;7.40;99.90;;;;;;4912804;29;20947;-78
2021/04/08 09:17:56;;;;;;;7.23;3.67;;;7.50;99.90;;;;;;4909967;29;20220;-77
2021/04/08 09:20:41;;;;;;;7.00;3.50;;;7.70;99.90;;;;;;4914733;29;20304;-78
2021/04/08 09:23:27;;;;;;;11.87;4.77;;;7.90;99.90;;;;;;4915769;29;20232;-76
2021/04/08 09:26:22;;;;;;;6.63;3.73;;;8.10;99.90;;;;;;4914443;29;20316;-76
2021/04/08 09:29:09;;;;;;;6.23;3.50;;;8.30;99.90;;;;;;4916754;29;20239;-76
2021/04/08 09:32:25;;;;;;;6.27;3.80;;;8.60;99.90;;;;;;4912845;29;20700;-78
2021/04/08 09:35:20;;;;;;;4.77;3.43;;;8.80;99.90;;;;;;4917247;29;20587;-77
2021/04/08 09:38:15;;;;;;;7.10;4.20;;;9.10;99.90;;;;;;4916818;29;20705;-78
2021/04/08 09:41:02;;;;;;;5.73;3.50;;;9.30;99.90;;;;;;4917429;29;20306;-76
2021/04/08 09:43:49;;;;;;;8.97;4.27;;;9.60;98.00;;;;;;4917295;29;20221;-78
2021/04/08 09:46:38;;;;;;;7.60;3.53;;;9.70;97.60;;;;;;4921954;29;20235;-76
2021/04/08 09:49:48;;;;;;;6.70;3.83;;;9.80;99.90;;;;;;4922457;29;20275;-77
2021/04/08 09:52:56;;;;;;;6.60;3.87;;;10.20;99.60;;;;;;4920981;29;20203;-76
2021/04/08 09:55:48;;;;;;;8.90;4.57;;;10.40;98.20;;;;;;4916550;29;20243;-78
2021/04/08 09:58:35;;;;;;;6.57;3.87;;;10.70;98.60;;;;;;4917574;29;20235;-77
2021/04/08 10:01:20;;;;;;;5.33;4.23;;;10.90;99.10;;;;;;4914441;29;20227;-76
2021/04/08 10:04:21;;;;;;;5.70;4.20;;;11.10;97.40;;;;;;4918446;29;20214;-77
2021/04/08 10:07:08;;;;;;;7.37;4.53;;;11.20;95.90;;;;;;4918451;29;20227;-77
2021/04/08 10:09:55;;;;;;;6.63;5.13;;;11.40;94.00;;;;;;4917621;29;20238;-75
2021/04/08 10:12:39;;;;;;;6.97;5.40;;;11.40;92.00;;;;;;4917945;29;20210;-77
2021/04/08 10:15:35;;;;;;;6.53;5.00;;;11.60;91.40;;;;;;4915404;29;20212;-78
2021/04/08 10:18:21;;;;;;;8.97;5.63;;;11.70;90.80;;;;;;4914377;29;20207;-76
2021/04/08 10:21:09;;;;;;;8.07;5.33;;;11.80;90.90;;;;;;4917848;29;20231;-78
2021/04/08 10:23:56;;;;;;;8.63;5.70;;;12.00;89.30;;;;;;4918676;29;20227;-78
2021/04/08 10:26:41;;;;;;;8.00;5.43;;;12.00;84.70;;;;;;4918801;29;20276;-77
2021/04/08 10:29:34;;;;;;;9.00;4.97;;;12.10;83.10;;;;;;4918437;29;20253;-78
2021/04/08 10:32:33;;;;;;;8.20;5.27;;;12.10;82.00;;;;;;4920340;29;20229;-78
2021/04/08 10:35:20;;;;;;;8.10;5.23;;;12.10;82.00;;;;;;4918146;29;20277;-77
2021/04/08 10:38:06;;;;;;;7.50;5.20;;;12.00;79.90;;;;;;4920074;29;20256;-77
2021/04/08 10:40:52;;;;;;;7.07;4.80;;;12.00;80.90;;;;;;4921375;29;20235;-78
2021/04/08 10:43:37;;;;;;;11.07;5.70;;;12.00;82.80;;;;;;4920657;29;20291;-78
2021/04/08 10:46:23;;;;;;;7.00;4.63;;;12.00;81.70;;;;;;4919373;29;20296;-78
2021/04/08 10:49:07;;;;;;;6.67;5.27;;;12.10;81.40;;;;;;4918142;29;20247;-77
2021/04/08 10:51:53;;;;;;;6.50;4.87;;;12.00;78.60;;;;;;4919252;29;20248;-77
2021/04/08 10:54:40;;;;;;;8.27;5.83;;;12.00;78.90;;;;;;4919494;29;20221;-76
2021/04/08 10:57:26;;;;;;;8.50;5.60;;;11.90;78.40;;;;;;4927459;29;20218;-78
2021/04/08 11:00:14;;;;;;;8.00;5.13;;;11.80;79.70;;;;;;4918571;29;20235;-77
2021/04/08 11:03:00;;;;;;;9.80;5.77;;;11.80;82.00;;;;;;4916537;29;20370;-78
2021/04/08 11:05:45;;;;;;;7.27;5.57;;;11.80;79.80;;;;;;4916492;29;20223;-77
2021/04/08 11:08:30;;;;;;;9.93;6.00;;;11.80;78.60;;;;;;4917054;29;20259;-79
2021/04/08 11:11:24;;;;;;;11.10;5.63;;;11.80;80.00;;;;;;4918195;29;20211;-77
2021/04/08 11:14:20;;;;;;;6.93;4.87;;;11.80;80.10;;;;;;4915324;29;20529;-76
2021/04/08 11:17:06;;;;;;;5.37;4.67;;;11.70;77.80;;;;;;4916456;29;20223;-78
2021/04/08 11:19:52;;;;;;;7.80;5.60;;;11.70;79.10;;;;;;4914981;29;20375;-77
2021/04/08 11:22:43;;;;;;;8.50;5.20;;;11.60;81.40;;;;;;4920905;29;20234;-76
2021/04/08 11:25:30;;;;;;;6.70;5.40;;;11.60;79.60;;;;;;4919968;29;20366;-78
2021/04/08 11:28:22;;;;;;;9.13;5.70;;;11.50;78.50;;;;;;4918990;29;20218;-75
2021/04/08 11:31:14;;;;;;;6.67;5.20;;;11.50;78.00;;;;;;4907773;29;20337;-77
2021/04/08 11:34:00;;;;;;;11.33;5.63;;;11.40;77.40;;;;;;4918616;29;20260;-77
2021/04/08 11:36:52;;;;;;;6.03;4.93;;;11.40;80.10;;;;;;4915764;29;20208;-76
2021/04/08 11:39:37;;;;;;;7.23;4.97;;;11.30;79.60;;;;;;4915557;29;20251;-77
2021/04/08 11:42:24;;;;;;;9.27;5.60;;;11.30;81.00;;;;;;4915595;29;20247;-77
2021/04/08 11:45:24;;;;;;;9.23;6.27;;;11.20;78.20;;;;;;4915343;29;20308;-78
2021/04/08 11:48:09;;;;;;;10.23;7.40;;;11.20;78.90;;;;;;4917804;29;20275;-77
2021/04/08 11:51:04;;;;;;;12.03;6.53;;;11.20;78.80;;;;;;4917904;29;20307;-77
2021/04/08 11:53:50;;;;;;;10.17;6.67;;;11.20;79.50;;;;;;4917301;29;20704;-78
2021/04/08 11:56:38;;;;;;;8.80;7.30;;;11.20;78.70;;;;;;4920858;29;20231;-77
2021/04/08 11:59:23;;;;;;;9.33;6.43;;;11.20;80.80;;;;;;4917792;29;20223;-78
2021/04/08 12:02:08;;;;;;;11.47;7.20;;;11.20;80.30;;;;;;4917424;29;20249;-76
2021/04/08 12:04:52;;;;;;;8.80;6.30;;;11.20;83.90;;;;;;4918184;29;20204;-77
2021/04/08 12:07:42;;;;;;;9.00;6.57;;;11.40;80.50;;;;;;4916491;29;20300;-78
2021/04/08 12:10:30;;;;;;;8.43;6.60;;;11.50;79.30;;;;;;4916352;29;20255;-76
2021/04/08 12:13:21;;;;;;;9.53;6.77;;;11.60;78.80;;;;;;4920275;29;20223;-77
2021/04/08 12:16:06;;;;;;;12.93;6.43;;;11.70;79.90;;;;;;4916978;29;20256;-78
2021/04/08 12:18:52;;;;;;;10.87;6.77;;;11.80;78.10;;;;;;4917675;29;20267;-78
2021/04/08 12:21:37;;;;;;;9.20;7.40;;;11.80;77.50;;;;;;4916897;29;20578;-77
2021/04/08 12:24:23;;;;;;;8.53;7.17;;;11.80;75.30;;;;;;4918019;29;20211;-77
2021/04/08 12:27:16;;;;;;;8.40;6.13;;;11.70;75.80;;;;;;4917707;29;20223;-78
2021/04/08 12:30:01;;;;;;;10.73;7.10;;;11.70;79.20;;;;;;4918698;29;20231;-76
2021/04/08 12:32:46;;;;;;;8.00;6.77;;;11.70;78.30;;;;;;4913364;29;20275;-78
2021/04/08 12:35:30;;;;;;;12.60;7.43;;;11.70;78.00;;;;;;4917137;29;20272;-78
2021/04/08 12:38:15;;;;;;;13.67;7.53;;;11.60;79.20;;;;;;4915861;29;20215;-78
2021/04/08 12:41:02;;;;;;;10.37;7.60;;;11.60;80.80;;;;;;4919100;29;20222;-79
2021/04/08 12:43:47;;;;;;;10.27;7.73;;;11.60;78.60;;;;;;4918558;29;20214;-76
2021/04/08 12:46:32;;;;;;;9.03;7.20;;;11.60;77.50;;;;;;4919068;29;20207;-78
2021/04/08 12:49:17;;;;;;;12.77;8.27;;;11.60;77.10;;;;;;4918436;29;20283;-77
2021/04/08 12:52:03;;;;;;;12.20;8.27;;;11.60;78.60;;;;;;4918644;29;20244;-80
2021/04/08 12:54:48;;;;;;;9.53;6.50;;;11.50;80.00;;;;;;4915861;29;20207;-78
2021/04/08 12:57:33;;;;;;;11.10;8.47;;;11.50;80.30;;;;;;4917145;29;20211;-78
2021/04/08 13:00:19;;;;;;;12.97;8.80;;;11.50;78.30;;;;;;4912116;29;20255;-77
2021/04/08 13:03:04;;;;;;;12.40;8.53;;;11.60;78.60;;;;;;4917547;29;20300;-77
2021/04/08 13:05:49;;;;;;;11.57;8.10;;;11.60;80.30;;;;;;4911149;29;20233;-78
2021/04/08 13:08:34;;;;;;;12.13;7.70;;;11.70;79.10;;;;;;4906786;29;20268;-78
2021/04/08 13:11:19;;;;;;;10.63;8.30;;;11.70;80.60;;;;;;4915337;29;20203;-77
2021/04/08 13:14:04;;;;;;;10.70;8.93;;;11.70;80.10;;;;;;4917446;29;20215;-79
2021/04/08 13:16:50;;;;;;;12.53;9.67;;;12.00;77.60;;;;;;4909392;29;20228;-75
2021/04/08 13:19:35;;;;;;;11.80;9.53;;;12.20;75.90;;;;;;4914671;29;20231;-77
2021/04/08 13:22:19;;;;;;;17.00;9.47;;;12.30;77.00;;;;;;4909454;29;20239;-78
2021/04/08 13:25:06;;;;;;;12.80;8.17;;;12.40;79.10;;;;;;4903993;29;20288;-77
2021/04/08 13:27:51;;;;;;;15.77;9.00;;;12.30;81.00;;;;;;4916738;29;20674;-77
2021/04/08 13:30:37;;;;;;;12.30;8.70;;;12.30;80.00;;;;;;4916493;29;20235;-77
2021/04/08 13:33:23;;;;;;;11.20;8.83;;;12.50;79.40;;;;;;4920404;29;20252;-77
2021/04/08 13:36:08;;;;;;;12.27;9.10;;;12.60;77.80;;;;;;4910521;29;20212;-79
2021/04/08 13:38:53;;;;;;;12.77;9.73;;;12.80;78.50;;;;;;4914501;29;20239;-77
2021/04/08 13:41:38;;;;;;;11.57;9.77;;;13.00;77.30;;;;;;4916452;29;20264;-77
2021/04/08 13:44:23;;;;;;;12.60;9.53;;;13.20;74.80;;;;;;4915137;29;20207;-76
2021/04/08 13:47:12;;;;;;;12.07;10.47;;;13.40;76.10;;;;;;4917137;29;20337;-77
2021/04/08 13:49:58;;;;;;;12.83;10.20;;;13.50;74.40;;;;;;4912406;29;20235;-77
2021/04/08 13:52:43;;;;;;;14.80;10.43;;;13.80;71.90;;;;;;4915560;29;20227;-77
2021/04/08 13:55:29;;;;;;;11.77;9.70;;;14.10;72.00;;;;;;4917500;29;21025;-76
2021/04/08 13:58:13;;;;;;;12.73;9.97;;;14.40;70.40;;;;;;4916735;29;20293;-77
2021/04/08 14:00:58;;;;;;;11.47;10.27;;;14.50;70.50;;;;;;4913223;29;20227;-77
2021/04/08 14:03:44;;;;;;;11.03;9.73;;;14.60;70.30;;;;;;4898907;29;20218;-79
2021/04/08 14:06:28;;;;;;;10.97;9.50;;;14.70;70.50;;;;;;4909696;29;20214;-76
2021/04/08 14:09:13;;;;;;;13.17;9.70;;;14.90;70.10;;;;;;4898673;29;20285;-77
2021/04/08 14:11:58;;;;;;;12.17;8.80;;;15.10;67.50;;;;;;4913271;29;20204;-78
2021/04/08 14:14:43;;;;;;;9.43;8.47;;;15.30;70.00;;;;;;4914009;29;20242;-77
2021/04/08 14:17:28;;;;;;;10.70;9.60;;;15.50;67.90;;;;;;4906580;29;20242;-77
2021/04/08 14:20:14;;;;;;;12.50;10.00;;;15.60;68.20;;;;;;4905451;29;20260;-77
2021/04/08 14:22:59;;;;;;;13.83;10.97;;;15.60;68.90;;;;;;4912302;29;20336;-76
2021/04/08 14:25:44;;;;;;;11.10;9.90;;;15.60;66.70;;;;;;4910394;29;20689;-79
2021/04/08 14:28:28;;;;;;;14.03;11.20;;;15.70;68.10;;;;;;4914004;29;20237;-76
2021/04/08 14:31:13;;;;;;;12.07;10.17;;;15.80;67.00;;;;;;4909464;29;20329;-77